createdAt,value
2019-03-03T00:00:50.263Z,58.30
2019-03-03T00:03:19.795Z,58.30
2019-03-03T00:05:52.362Z,58.30
2019-03-03T00:08:27.075Z,58.10
2019-03-03T00:10:59.281Z,58.20
2019-03-03T00:13:29.422Z,58.20
2019-03-03T00:16:01.985Z,58.20
2019-03-03T00:18:31.822Z,58.20
2019-03-03T00:21:00.855Z,58.30
2019-03-03T00:23:36.994Z,58.30
2019-03-03T00:26:06.657Z,58.40
2019-03-03T00:28:35.533Z,58.30
2019-03-03T00:31:06.202Z,58.40
2019-03-03T00:33:36.676Z,58.40
2019-03-03T00:36:12.608Z,58.40
2019-03-03T00:39:06.685Z,58.40
2019-03-03T00:42:09.747Z,58.40
2019-03-03T00:45:07.496Z,58.50
2019-03-03T00:47:53.742Z,58.40
2019-03-03T00:50:40.572Z,58.50
2019-03-03T00:53:22.156Z,58.60
2019-03-03T00:56:06.293Z,58.80
2019-03-03T00:58:45.875Z,58.80
2019-03-03T01:01:45.567Z,58.70
2019-03-03T01:04:45.404Z,58.80
2019-03-03T01:07:32.250Z,58.90
2019-03-03T01:10:26.259Z,59.00
2019-03-03T01:13:20.788Z,59.00
2019-03-03T01:16:09.150Z,59.20
2019-03-03T01:18:43.940Z,59.70
2019-03-03T01:21:23.340Z,60.00
2019-03-03T01:24:03.975Z,60.40
2019-03-03T01:26:32.923Z,60.60
2019-03-03T01:29:02.675Z,60.90
2019-03-03T01:31:32.017Z,61.20
2019-03-03T01:34:07.045Z,61.40
2019-03-03T01:36:37.695Z,61.50
2019-03-03T01:39:08.267Z,61.70
2019-03-03T01:41:37.245Z,61.80
2019-03-03T01:44:06.914Z,61.80
2019-03-03T01:46:36.050Z,61.90
2019-03-03T01:49:05.156Z,61.90
2019-03-03T01:51:34.463Z,62.00
2019-03-03T01:54:04.678Z,61.80
2019-03-03T01:56:34.045Z,61.80
2019-03-03T01:59:04.856Z,61.70
2019-03-03T02:01:33.772Z,61.80
2019-03-03T02:04:04.177Z,61.80
2019-03-03T02:06:33.553Z,61.80
2019-03-03T02:09:03.374Z,61.80
2019-03-03T02:11:32.847Z,61.70
2019-03-03T02:14:05.856Z,61.70
2019-03-03T02:16:35.466Z,61.70
2019-03-03T02:19:07.229Z,61.70
2019-03-03T02:21:37.662Z,61.70
2019-03-03T02:24:12.217Z,61.70
2019-03-03T02:26:44.415Z,61.70
2019-03-03T02:29:13.410Z,61.60
2019-03-03T02:31:44.504Z,61.60
2019-03-03T02:34:13.531Z,61.60
2019-03-03T02:36:49.408Z,61.50
2019-03-03T02:39:19.119Z,61.60
2019-03-03T02:41:52.882Z,61.50
2019-03-03T02:44:21.657Z,61.30
2019-03-03T02:46:58.130Z,61.30
2019-03-03T02:49:27.071Z,61.30
2019-03-03T02:51:59.596Z,61.30
2019-03-03T02:54:29.469Z,61.20
2019-03-03T02:56:58.868Z,61.20
2019-03-03T02:59:28.150Z,61.20
2019-03-03T03:02:09.085Z,61.30
2019-03-03T03:04:54.589Z,61.30
2019-03-03T03:07:51.846Z,61.40
2019-03-03T03:10:51.584Z,61.40
2019-03-03T03:13:30.609Z,61.40
2019-03-03T03:16:14.350Z,61.50
2019-03-03T03:19:01.538Z,61.50
2019-03-03T03:21:38.177Z,61.50
2019-03-03T03:24:26.750Z,61.60
2019-03-03T03:27:12.073Z,61.60
2019-03-03T03:30:02.653Z,61.70
2019-03-03T03:32:50.952Z,61.60
2019-03-03T03:35:45.590Z,61.70
2019-03-03T03:38:27.827Z,61.90
2019-03-03T03:41:16.977Z,62.20
2019-03-03T03:44:23.018Z,62.70
2019-03-03T03:47:05.861Z,63.40
2019-03-03T03:49:56.563Z,63.70
2019-03-03T03:52:47.637Z,64.10
2019-03-03T03:55:41.448Z,64.60
2019-03-03T03:58:38.140Z,65.10
2019-03-03T04:01:18.345Z,65.40
2019-03-03T04:04:05.050Z,65.70
2019-03-03T04:07:06.910Z,66.00
2019-03-03T04:09:43.616Z,66.40
2019-03-03T04:12:25.477Z,66.60
2019-03-03T04:15:27.767Z,66.80
2019-03-03T04:18:07.380Z,67.10
2019-03-03T04:20:56.937Z,67.40
2019-03-03T04:23:52.195Z,67.60
2019-03-03T04:26:52.459Z,67.80
2019-03-03T04:29:40.585Z,68.20
2019-03-03T04:32:20.907Z,68.40
2019-03-03T04:35:12.175Z,68.60
2019-03-03T04:37:54.213Z,68.80
2019-03-03T04:40:34.818Z,69.10
2019-03-03T04:43:09.594Z,69.40
2019-03-03T04:46:03.638Z,69.50
2019-03-03T04:48:51.706Z,69.50
2019-03-03T04:51:48.673Z,69.60
2019-03-03T04:54:30.065Z,69.70
2019-03-03T04:57:16.357Z,69.90
2019-03-03T05:00:04.525Z,69.90
2019-03-03T05:03:11.179Z,70.10
2019-03-03T05:05:51.572Z,70.30
2019-03-03T05:08:26.945Z,70.40
2019-03-03T05:11:22.817Z,70.40
2019-03-03T05:14:03.492Z,70.50
2019-03-03T05:17:01.009Z,70.60
2019-03-03T05:19:41.772Z,70.60
2019-03-03T05:22:10.805Z,70.70
2019-03-03T05:24:40.042Z,70.60
2019-03-03T05:27:09.057Z,70.70
2019-03-03T05:29:38.322Z,70.70
2019-03-03T05:32:07.166Z,70.80
2019-03-03T05:34:36.362Z,70.80
2019-03-03T05:37:07.847Z,70.70
2019-03-03T05:39:37.715Z,70.70
2019-03-03T05:42:07.074Z,70.70
2019-03-03T05:44:40.503Z,70.60
2019-03-03T05:47:09.473Z,70.50
2019-03-03T05:49:46.733Z,70.50
2019-03-03T05:52:15.789Z,70.50
2019-03-03T05:54:48.476Z,70.50
2019-03-03T05:57:17.536Z,70.60
2019-03-03T05:59:47.853Z,70.60
2019-03-03T06:02:17.092Z,70.70
2019-03-03T06:05:02.963Z,70.80
2019-03-03T06:07:31.892Z,70.90
2019-03-03T06:10:05.350Z,70.90
2019-03-03T06:12:34.578Z,70.90
2019-03-03T06:15:09.819Z,70.90
2019-03-03T06:17:34.923Z,71.00
2019-03-03T06:20:05.400Z,71.00
2019-03-03T06:22:34.431Z,71.20
2019-03-03T06:25:03.863Z,71.20
2019-03-03T06:27:32.866Z,71.40
2019-03-03T06:30:02.929Z,71.50
2019-03-03T06:32:31.881Z,71.70
2019-03-03T06:35:01.441Z,71.80
2019-03-03T06:37:30.545Z,72.00
2019-03-03T06:39:59.541Z,72.10
2019-03-03T06:42:28.912Z,72.30
2019-03-03T06:44:57.760Z,72.40
2019-03-03T06:47:26.751Z,72.40
2019-03-03T06:49:55.793Z,72.50
2019-03-03T06:52:25.001Z,72.60
2019-03-03T06:54:55.437Z,72.70
2019-03-03T06:57:24.446Z,72.70
2019-03-03T06:59:53.645Z,72.60
2019-03-03T07:02:23.366Z,72.70
2019-03-03T07:04:52.985Z,72.70
2019-03-03T07:07:22.061Z,72.70
2019-03-03T07:09:50.994Z,72.60
2019-03-03T07:12:19.901Z,72.80
2019-03-03T07:14:50.424Z,72.90
2019-03-03T07:17:19.652Z,72.90
2019-03-03T07:19:51.470Z,73.00
2019-03-03T07:22:22.670Z,72.90
2019-03-03T07:24:51.812Z,73.00
2019-03-03T07:27:20.726Z,73.00
2019-03-03T07:29:53.441Z,73.00
2019-03-03T07:32:24.826Z,73.20
2019-03-03T07:34:53.999Z,73.20
2019-03-03T07:37:24.089Z,73.20
2019-03-03T07:39:53.503Z,73.30
2019-03-03T07:42:22.517Z,73.50
2019-03-03T07:44:51.798Z,73.50
2019-03-03T07:47:20.809Z,73.50
2019-03-03T07:49:49.738Z,73.40
2019-03-03T07:52:18.606Z,73.50
2019-03-03T07:54:47.534Z,73.40
2019-03-03T07:57:16.505Z,73.40
2019-03-03T07:59:45.373Z,73.60
2019-03-03T08:02:14.266Z,73.50
2019-03-03T08:04:43.471Z,73.50
2019-03-03T08:07:12.431Z,73.60
2019-03-03T08:09:41.403Z,73.50
2019-03-03T08:12:10.642Z,73.40
2019-03-03T08:14:41.863Z,73.40
2019-03-03T08:17:11.188Z,73.40
2019-03-03T08:19:41.235Z,73.40
2019-03-03T08:22:11.231Z,73.40
2019-03-03T08:24:40.466Z,73.30
2019-03-03T08:27:09.768Z,73.40
2019-03-03T08:29:40.518Z,73.30
2019-03-03T08:32:14.354Z,73.50
2019-03-03T08:34:54.608Z,73.60
2019-03-03T08:37:25.043Z,73.70
2019-03-03T08:39:53.977Z,73.60
2019-03-03T08:42:40.871Z,73.60
2019-03-03T08:45:28.153Z,73.60
2019-03-03T08:48:04.760Z,73.60
2019-03-03T08:50:44.434Z,73.60
2019-03-03T08:53:23.746Z,73.50
2019-03-03T08:56:06.413Z,73.50
2019-03-03T08:58:49.715Z,73.40
2019-03-03T09:01:37.654Z,73.50
2019-03-03T09:04:23.260Z,73.60
2019-03-03T09:07:28.244Z,73.60
2019-03-03T09:10:25.250Z,73.40
2019-03-03T09:13:12.204Z,73.00
2019-03-03T09:16:00.752Z,73.30
2019-03-03T09:18:43.538Z,73.40
2019-03-03T09:21:29.653Z,73.40
2019-03-03T09:24:20.677Z,73.90
2019-03-03T09:27:02.840Z,73.10
2019-03-03T09:29:54.772Z,73.00
2019-03-03T09:33:00.947Z,72.80
2019-03-03T09:35:56.838Z,72.50
2019-03-03T09:38:39.387Z,72.10
2019-03-03T09:41:36.504Z,71.60
2019-03-03T09:44:16.331Z,70.70
2019-03-03T09:47:23.413Z,70.40
2019-03-03T09:50:08.927Z,70.00
2019-03-03T09:56:04.854Z,68.80
2019-03-03T09:58:53.591Z,68.40
2019-03-03T10:01:41.671Z,67.50
2019-03-03T10:07:30.910Z,67.20
2019-03-03T10:10:22.191Z,67.10
2019-03-03T10:12:59.930Z,67.10
2019-03-03T10:15:46.870Z,67.00
2019-03-03T10:18:53.821Z,66.80
2019-03-03T10:21:36.844Z,66.60
2019-03-03T10:24:18.983Z,66.50
2019-03-03T10:27:12.905Z,66.20
2019-03-03T10:30:13.469Z,65.90
2019-03-03T10:32:56.243Z,65.90
2019-03-03T10:35:37.770Z,65.90
2019-03-03T10:38:40.618Z,65.70
2019-03-03T10:41:27.769Z,65.60
2019-03-03T10:44:30.095Z,65.40
2019-03-03T10:47:39.842Z,65.30
2019-03-03T10:50:37.745Z,64.80
2019-03-03T10:53:43.172Z,64.40
2019-03-03T10:56:27.631Z,64.30
2019-03-03T10:59:25.741Z,63.60
2019-03-03T11:02:12.927Z,63.10
2019-03-03T11:05:15.747Z,62.60
2019-03-03T11:08:16.486Z,62.30
2019-03-03T11:11:08.621Z,61.80
2019-03-03T11:14:00.712Z,61.50
2019-03-03T11:16:53.649Z,61.40
2019-03-03T11:19:45.150Z,60.90
2019-03-03T11:22:39.097Z,60.70
2019-03-03T11:25:44.466Z,59.90
2019-03-03T11:28:37.750Z,59.60
2019-03-03T11:31:24.293Z,58.20
2019-03-03T11:34:25.359Z,57.70
2019-03-03T11:37:14.086Z,57.20
2019-03-03T11:40:12.829Z,56.80
2019-03-03T11:43:20.864Z,56.30
2019-03-03T11:46:07.907Z,56.00
2019-03-03T11:49:11.333Z,55.00
2019-03-03T11:51:57.310Z,55.30
2019-03-03T11:55:01.912Z,54.70
2019-03-03T11:57:56.814Z,54.70
2019-03-03T12:00:53.404Z,54.50
2019-03-03T12:04:08.022Z,54.10
2019-03-03T12:07:04.386Z,53.80
2019-03-03T12:10:09.277Z,53.90
2019-03-03T12:13:05.534Z,53.10
2019-03-03T12:15:51.829Z,53.00
2019-03-03T12:18:57.320Z,52.80
2019-03-03T12:21:48.139Z,52.60
2019-03-03T12:24:29.706Z,52.00
2019-03-03T12:27:18.339Z,51.70
2019-03-03T12:30:20.368Z,51.70
2019-03-03T12:33:13.542Z,51.50
2019-03-03T12:36:00.041Z,51.10
2019-03-03T12:38:46.979Z,50.80
2019-03-03T12:41:33.605Z,50.80
2019-03-03T12:44:46.217Z,50.50
2019-03-03T12:47:35.166Z,50.50
2019-03-03T12:50:32.494Z,50.30
2019-03-03T12:53:29.352Z,50.10
2019-03-03T12:56:06.326Z,49.90
2019-03-03T12:59:14.028Z,49.50
2019-03-03T13:02:03.810Z,49.30
2019-03-03T13:04:48.513Z,49.20
2019-03-03T13:07:32.606Z,49.00
2019-03-03T13:10:29.713Z,49.00
2019-03-03T13:12:59.329Z,48.90
2019-03-03T13:15:47.514Z,48.90
2019-03-03T13:18:38.253Z,48.50
2019-03-03T13:21:36.066Z,48.10
2019-03-03T13:24:16.418Z,47.70
2019-03-03T13:26:59.608Z,47.50
2019-03-03T13:29:53.798Z,46.90
2019-03-03T13:32:44.478Z,46.70
2019-03-03T13:35:39.268Z,46.50
2019-03-03T13:38:26.408Z,46.30
2019-03-03T13:41:21.182Z,46.20
2019-03-03T13:43:53.939Z,46.00
2019-03-03T13:46:31.162Z,45.90
2019-03-03T13:49:07.303Z,45.70
2019-03-03T13:51:56.447Z,45.60
2019-03-03T13:54:32.219Z,45.30
2019-03-03T13:57:01.259Z,45.70
2019-03-03T13:59:32.165Z,45.90
2019-03-03T14:02:01.754Z,45.60
2019-03-03T14:04:30.918Z,45.40
2019-03-03T14:07:10.108Z,45.60
2019-03-03T14:10:13.517Z,45.80
2019-03-03T14:12:42.906Z,45.90
2019-03-03T14:15:13.826Z,46.30
2019-03-03T14:17:47.728Z,46.30
2019-03-03T14:20:21.138Z,46.20
2019-03-03T14:22:56.640Z,46.20
2019-03-03T14:25:28.880Z,46.10
2019-03-03T14:28:01.400Z,46.20
2019-03-03T14:30:31.443Z,46.40
2019-03-03T14:33:03.361Z,46.60
2019-03-03T14:35:33.543Z,47.00
2019-03-03T14:38:07.343Z,47.40
2019-03-03T14:40:36.869Z,47.60
2019-03-03T14:43:08.915Z,48.20
2019-03-03T14:45:38.672Z,48.40
2019-03-03T14:48:14.859Z,48.80
2019-03-03T14:50:44.525Z,49.10
2019-03-03T14:53:53.390Z,49.20
2019-03-03T14:56:23.245Z,49.50
2019-03-03T14:58:55.967Z,49.80
2019-03-03T15:01:25.013Z,50.10
2019-03-03T15:04:33.208Z,50.30
2019-03-03T15:07:04.716Z,50.60
2019-03-03T15:09:36.201Z,51.70
2019-03-03T15:12:05.612Z,51.90
2019-03-03T15:14:37.468Z,52.20
2019-03-03T15:17:06.401Z,52.40
2019-03-03T15:19:35.586Z,52.60
2019-03-03T15:22:04.841Z,52.80
2019-03-03T15:24:34.269Z,53.10
2019-03-03T15:27:03.657Z,53.30
2019-03-03T15:29:33.570Z,53.40
2019-03-03T15:32:03.066Z,53.60
2019-03-03T15:34:39.590Z,53.80
2019-03-03T15:37:11.785Z,54.00
2019-03-03T15:39:41.414Z,54.20
2019-03-03T15:42:11.842Z,54.40
2019-03-03T15:44:41.905Z,54.50
2019-03-03T15:47:13.399Z,54.70
2019-03-03T15:49:44.058Z,54.80
2019-03-03T15:52:13.145Z,54.90
2019-03-03T15:54:42.175Z,54.90
2019-03-03T15:57:11.558Z,55.10
2019-03-03T15:59:41.683Z,55.10
2019-03-03T16:05:31.960Z,55.60
2019-03-03T16:08:06.040Z,55.80
2019-03-03T16:10:40.161Z,56.00
2019-03-03T16:13:26.334Z,56.00
2019-03-03T16:15:58.432Z,56.10
2019-03-03T16:18:34.325Z,55.90
2019-03-03T16:21:03.797Z,56.00
2019-03-03T16:23:55.089Z,56.10
2019-03-03T16:26:26.040Z,56.10
2019-03-03T16:29:14.526Z,56.00
2019-03-03T16:31:51.471Z,55.90
2019-03-03T16:37:13.736Z,55.80
2019-03-03T16:39:46.762Z,55.80
2019-03-03T16:42:28.661Z,55.90
2019-03-03T16:45:10.034Z,55.80
2019-03-03T16:48:03.062Z,56.00
2019-03-03T16:50:35.741Z,56.00
2019-03-03T16:53:08.562Z,56.00
2019-03-03T16:55:37.702Z,56.10
2019-03-03T16:58:13.175Z,56.10
2019-03-03T17:04:01.835Z,56.10
2019-03-03T17:06:31.297Z,56.20
2019-03-03T17:09:24.553Z,56.00
2019-03-03T17:12:18.007Z,56.10
2019-03-03T17:14:50.981Z,56.00
2019-03-03T17:17:28.582Z,56.00
2019-03-03T17:20:00.949Z,56.00
2019-03-03T17:22:31.923Z,55.90
2019-03-03T17:25:03.174Z,56.00
2019-03-03T17:27:33.615Z,56.10
2019-03-03T17:30:03.095Z,55.90
2019-03-03T17:32:47.189Z,55.90
2019-03-03T17:35:24.844Z,55.90
2019-03-03T17:37:56.703Z,55.80
2019-03-03T17:40:26.802Z,55.70
2019-03-03T17:42:57.052Z,55.80
2019-03-03T17:45:26.523Z,55.80
2019-03-03T17:47:57.172Z,55.80
2019-03-03T17:50:30.224Z,55.80
2019-03-03T17:53:03.188Z,55.80
2019-03-03T17:55:51.405Z,55.80
2019-03-03T17:58:50.281Z,55.80
2019-03-03T18:01:54.805Z,55.90
2019-03-03T18:04:48.129Z,56.00
2019-03-03T18:07:42.527Z,56.10
2019-03-03T18:10:12.090Z,56.10
2019-03-03T18:12:42.553Z,56.00
2019-03-03T18:15:18.523Z,56.20
2019-03-03T18:17:50.331Z,56.40
2019-03-03T18:20:23.030Z,56.40
2019-03-03T18:23:01.489Z,56.40
2019-03-03T18:25:30.564Z,56.50
2019-03-03T18:28:05.679Z,56.60
2019-03-03T18:30:34.837Z,56.60
2019-03-03T18:33:30.555Z,56.60
2019-03-03T18:36:05.007Z,56.70
2019-03-03T18:38:36.049Z,56.70
2019-03-03T18:41:07.162Z,56.90
2019-03-03T18:43:37.645Z,57.00
2019-03-03T18:46:09.298Z,57.00
2019-03-03T18:48:41.870Z,57.10
2019-03-03T18:51:13.933Z,57.20
2019-03-03T18:53:43.763Z,57.40
2019-03-03T18:56:17.276Z,57.40
2019-03-03T18:59:24.946Z,57.50
2019-03-03T19:01:48.446Z,57.50
2019-03-03T19:04:24.175Z,57.50
2019-03-03T19:07:27.426Z,57.50
2019-03-03T19:10:02.589Z,57.50
2019-03-03T19:12:32.710Z,57.40
2019-03-03T19:15:25.635Z,57.40
2019-03-03T19:18:29.908Z,57.50
2019-03-03T19:21:21.066Z,57.50
2019-03-03T19:23:50.316Z,57.60
2019-03-03T19:26:41.686Z,57.60
2019-03-03T19:30:09.504Z,57.60
2019-03-03T19:33:03.599Z,57.90
2019-03-03T19:35:41.395Z,58.00
2019-03-03T19:42:05.794Z,58.30
2019-03-03T19:48:41.456Z,58.70
2019-03-03T19:51:15.221Z,58.60
2019-03-03T19:53:55.168Z,58.80
2019-03-03T19:56:27.570Z,58.90
2019-03-03T19:58:57.874Z,59.00
2019-03-03T20:01:42.339Z,59.10
2019-03-03T20:07:07.515Z,59.20
2019-03-03T20:12:56.340Z,59.30
2019-03-03T20:15:35.896Z,59.50
2019-03-03T20:18:10.333Z,59.80
2019-03-03T20:24:01.927Z,60.40
2019-03-03T20:26:33.106Z,60.80
2019-03-03T20:29:29.321Z,61.10
2019-03-03T20:32:04.605Z,61.60
2019-03-03T20:34:40.835Z,61.80
2019-03-03T20:37:15.587Z,62.00
2019-03-03T20:39:45.345Z,62.40
2019-03-03T20:42:16.490Z,62.80
2019-03-03T20:44:46.650Z,63.00
2019-03-03T20:47:17.675Z,63.30
2019-03-03T20:49:50.099Z,63.70
2019-03-03T20:52:49.970Z,63.90
2019-03-03T20:55:29.369Z,64.20
2019-03-03T20:58:04.064Z,64.50
2019-03-03T21:00:35.700Z,64.70
2019-03-03T21:03:09.730Z,65.00
2019-03-03T21:05:42.261Z,65.20
2019-03-03T21:08:33.307Z,65.40
2019-03-03T21:11:02.711Z,65.70
2019-03-03T21:13:37.366Z,65.80
2019-03-03T21:16:07.404Z,66.00
2019-03-03T21:18:36.389Z,66.20
2019-03-03T21:21:07.336Z,66.30
2019-03-03T21:23:38.100Z,66.60
2019-03-03T21:26:09.369Z,66.80
2019-03-03T21:28:39.541Z,67.00
2019-03-03T21:31:10.293Z,67.20
2019-03-03T21:33:41.749Z,67.40
2019-03-03T21:36:13.322Z,67.50
2019-03-03T21:38:42.246Z,67.60
2019-03-03T21:41:11.550Z,67.80
2019-03-03T21:43:46.986Z,68.00
2019-03-03T21:46:16.658Z,68.20
2019-03-03T21:48:45.840Z,68.30
2019-03-03T21:51:15.223Z,68.60
2019-03-03T21:53:45.578Z,68.70
2019-03-03T21:56:14.859Z,69.00
2019-03-03T21:58:43.871Z,69.10
2019-03-03T22:01:13.129Z,69.30
2019-03-03T22:03:42.411Z,69.40
2019-03-03T22:06:11.391Z,69.40
2019-03-03T22:08:40.269Z,69.60
2019-03-03T22:11:12.027Z,69.60
2019-03-03T22:13:41.314Z,69.70
2019-03-03T22:16:10.545Z,69.80
2019-03-03T22:18:39.434Z,69.90
2019-03-03T22:21:08.585Z,69.90
2019-03-03T22:23:37.597Z,70.00
2019-03-03T22:26:17.078Z,70.10
2019-03-03T22:28:57.650Z,70.10
2019-03-03T22:31:28.472Z,70.10
2019-03-03T22:34:13.098Z,70.20
2019-03-03T22:37:02.761Z,70.40
2019-03-03T22:39:47.544Z,70.30
2019-03-03T22:42:27.128Z,70.40
2019-03-03T22:45:40.854Z,70.40
2019-03-03T22:48:32.142Z,70.60
2019-03-03T22:54:17.049Z,70.70
2019-03-03T22:56:48.089Z,71.40
2019-03-03T22:59:19.231Z,70.90
2019-03-03T23:01:48.948Z,70.90
2019-03-03T23:05:03.876Z,71.00
2019-03-03T23:08:13.120Z,71.10
2019-03-03T23:11:22.196Z,71.10
2019-03-03T23:18:34.582Z,71.00
2019-03-03T23:25:23.159Z,70.80
2019-03-03T23:28:10.619Z,71.00
2019-03-03T23:31:51.060Z,70.90
2019-03-03T23:35:12.616Z,70.90
2019-03-03T23:37:56.032Z,71.00
2019-03-03T23:40:52.237Z,70.80
2019-03-03T23:43:29.511Z,70.80
2019-03-03T23:46:06.812Z,71.00
2019-03-03T23:48:48.951Z,71.00
2019-03-03T23:51:19.647Z,70.80
2019-03-03T23:53:57.389Z,71.20
2019-03-03T23:56:31.592Z,71.20
2019-03-03T23:59:23.023Z,71.30
